Terminal Aerodrome Forecast
Issued by NWS

Home | Current Version | Previous Version | Text Only | Print | Product List | Glossary On
Versions: 1 2 3 4 5 6 7 8 9 10 11 12 13 14 15 16 17 18
976
FTUS45 KFGZ 270520
TAFGCN
TAF
KGCN 270520Z 2706/2806 VRB03KT P6SM SKC
     FM271800 26009G16KT P6SM BKN100 PROB30 2718/2724 VRB20G30KT
      P6SM -TSRA BKN080CB
     FM280300 VRB03KT P6SM FEW100=

USA.gov is the U.S. government's official web portal to all federal, state and local government web resources and services.